sensor_id;sensor_type;location;lat;lon;timestamp;pressure;altitude;pressure_sealevel;temperature
44429;BMP180;30134;47.866;-4.222;2022-12-18T00:01:26;101765.00;;;20.60
44429;BMP180;30134;47.866;-4.222;2022-12-18T00:03:54;101763.00;;;20.60
44429;BMP180;30134;47.866;-4.222;2022-12-18T00:06:22;101745.00;;;20.60
44429;BMP180;30134;47.866;-4.222;2022-12-18T00:08:49;101735.00;;;20.60
44429;BMP180;30134;47.866;-4.222;2022-12-18T00:11:19;101738.00;;;20.60
44429;BMP180;30134;47.866;-4.222;2022-12-18T00:13:45;101747.00;;;20.60
44429;BMP180;30134;47.866;-4.222;2022-12-18T00:16:16;101746.00;;;20.60
44429;BMP180;30134;47.866;-4.222;2022-12-18T00:18:44;101747.00;;;20.60
44429;BMP180;30134;47.866;-4.222;2022-12-18T00:21:11;101739.00;;;20.60
44429;BMP180;30134;47.866;-4.222;2022-12-18T00:23:39;101739.00;;;20.60
44429;BMP180;30134;47.866;-4.222;2022-12-18T00:26:10;101747.00;;;20.60
44429;BMP180;30134;47.866;-4.222;2022-12-18T00:28:37;101751.00;;;20.60
44429;BMP180;30134;47.866;-4.222;2022-12-18T00:31:06;101748.00;;;20.60
44429;BMP180;30134;47.866;-4.222;2022-12-18T00:33:33;101744.00;;;20.60
44429;BMP180;30134;47.866;-4.222;2022-12-18T00:36:12;101738.00;;;20.60
44429;BMP180;30134;47.866;-4.222;2022-12-18T00:38:39;101740.00;;;20.60
44429;BMP180;30134;47.866;-4.222;2022-12-18T00:41:07;101730.00;;;20.60
44429;BMP180;30134;47.866;-4.222;2022-12-18T00:43:33;101731.00;;;20.60
44429;BMP180;30134;47.866;-4.222;2022-12-18T00:45:59;101723.00;;;20.60
44429;BMP180;30134;47.866;-4.222;2022-12-18T00:48:25;101727.00;;;20.60
44429;BMP180;30134;47.866;-4.222;2022-12-18T00:50:54;101723.00;;;20.60
44429;BMP180;30134;47.866;-4.222;2022-12-18T00:53:20;101727.00;;;20.60
44429;BMP180;30134;47.866;-4.222;2022-12-18T00:55:47;101731.00;;;20.60
44429;BMP180;30134;47.866;-4.222;2022-12-18T00:58:15;101735.00;;;20.60
44429;BMP180;30134;47.866;-4.222;2022-12-18T01:00:42;101728.00;;;20.60
44429;BMP180;30134;47.866;-4.222;2022-12-18T01:03:13;101723.00;;;20.60
44429;BMP180;30134;47.866;-4.222;2022-12-18T01:05:41;101720.00;;;20.60
44429;BMP180;30134;47.866;-4.222;2022-12-18T01:08:07;101722.00;;;20.60
44429;BMP180;30134;47.866;-4.222;2022-12-18T01:10:33;101717.00;;;20.60
44429;BMP180;30134;47.866;-4.222;2022-12-18T01:12:59;101715.00;;;20.60
44429;BMP180;30134;47.866;-4.222;2022-12-18T01:15:25;101711.00;;;20.60
44429;BMP180;30134;47.866;-4.222;2022-12-18T01:17:54;101702.00;;;20.60
44429;BMP180;30134;47.866;-4.222;2022-12-18T01:20:20;101697.00;;;20.60
44429;BMP180;30134;47.866;-4.222;2022-12-18T01:22:46;101696.00;;;20.60
44429;BMP180;30134;47.866;-4.222;2022-12-18T01:25:12;101688.00;;;20.60
44429;BMP180;30134;47.866;-4.222;2022-12-18T01:27:38;101683.00;;;20.60
44429;BMP180;30134;47.866;-4.222;2022-12-18T01:30:05;101688.00;;;20.60
44429;BMP180;30134;47.866;-4.222;2022-12-18T01:32:31;101673.00;;;20.60
44429;BMP180;30134;47.866;-4.222;2022-12-18T01:34:57;101677.00;;;20.60
44429;BMP180;30134;47.866;-4.222;2022-12-18T01:37:24;101679.00;;;20.60
44429;BMP180;30134;47.866;-4.222;2022-12-18T01:39:50;101678.00;;;20.60
44429;BMP180;30134;47.866;-4.222;2022-12-18T01:42:18;101663.00;;;20.60
44429;BMP180;30134;47.866;-4.222;2022-12-18T01:47:48;101663.00;;;20.60
44429;BMP180;30134;47.866;-4.222;2022-12-18T01:50:17;101662.00;;;20.60
44429;BMP180;30134;47.866;-4.222;2022-12-18T01:52:58;101653.00;;;20.60
44429;BMP180;30134;47.866;-4.222;2022-12-18T01:55:29;101651.00;;;20.60
44429;BMP180;30134;47.866;-4.222;2022-12-18T01:57:59;101652.00;;;20.60
44429;BMP180;30134;47.866;-4.222;2022-12-18T02:00:27;101647.00;;;20.60
44429;BMP180;30134;47.866;-4.222;2022-12-18T02:02:54;101639.00;;;20.60
44429;BMP180;30134;47.866;-4.222;2022-12-18T02:05:46;101645.00;;;20.60
44429;BMP180;30134;47.866;-4.222;2022-12-18T02:08:24;101635.00;;;20.60
44429;BMP180;30134;47.866;-4.222;2022-12-18T02:11:24;101638.00;;;20.60
44429;BMP180;30134;47.866;-4.222;2022-12-18T02:14:34;101631.00;;;20.60
44429;BMP180;30134;47.866;-4.222;2022-12-18T02:17:11;101634.00;;;20.60
44429;BMP180;30134;47.866;-4.222;2022-12-18T02:20:20;101630.00;;;20.60
44429;BMP180;30134;47.866;-4.222;2022-12-18T02:26:31;101639.00;;;20.60
44429;BMP180;30134;47.866;-4.222;2022-12-18T02:29:05;101634.00;;;20.60
44429;BMP180;30134;47.866;-4.222;2022-12-18T02:31:45;101639.00;;;20.60
44429;BMP180;30134;47.866;-4.222;2022-12-18T02:34:13;101641.00;;;20.60
44429;BMP180;30134;47.866;-4.222;2022-12-18T02:36:42;101637.00;;;20.60
44429;BMP180;30134;47.866;-4.222;2022-12-18T02:39:11;101637.00;;;20.60
44429;BMP180;30134;47.866;-4.222;2022-12-18T02:41:39;101642.00;;;20.60
44429;BMP180;30134;47.866;-4.222;2022-12-18T02:44:13;101641.00;;;20.60
44429;BMP180;30134;47.866;-4.222;2022-12-18T02:46:43;101651.00;;;20.60
44429;BMP180;30134;47.866;-4.222;2022-12-18T02:52:44;101644.00;;;20.60
44429;BMP180;30134;47.866;-4.222;2022-12-18T02:58:46;101655.00;;;20.60
44429;BMP180;30134;47.866;-4.222;2022-12-18T03:01:43;101659.00;;;20.60
44429;BMP180;30134;47.866;-4.222;2022-12-18T03:04:28;101662.00;;;20.60
44429;BMP180;30134;47.866;-4.222;2022-12-18T03:06:59;101661.00;;;20.60
44429;BMP180;30134;47.866;-4.222;2022-12-18T03:09:36;101658.00;;;20.60
44429;BMP180;30134;47.866;-4.222;2022-12-18T03:12:30;101657.00;;;20.60
44429;BMP180;30134;47.866;-4.222;2022-12-18T03:15:09;101653.00;;;20.60
44429;BMP180;30134;47.866;-4.222;2022-12-18T03:17:41;101653.00;;;20.60
44429;BMP180;30134;47.866;-4.222;2022-12-18T03:20:14;101653.00;;;20.60
44429;BMP180;30134;47.866;-4.222;2022-12-18T03:22:43;101640.00;;;20.60
44429;BMP180;30134;47.866;-4.222;2022-12-18T03:25:13;101641.00;;;20.60
44429;BMP180;30134;47.866;-4.222;2022-12-18T03:27:47;101643.00;;;20.60
44429;BMP180;30134;47.866;-4.222;2022-12-18T03:30:15;101639.00;;;20.60
44429;BMP180;30134;47.866;-4.222;2022-12-18T03:35:39;101629.00;;;20.60
44429;BMP180;30134;47.866;-4.222;2022-12-18T03:38:08;101634.00;;;20.60
44429;BMP180;30134;47.866;-4.222;2022-12-18T03:41:05;101627.00;;;20.60
44429;BMP180;30134;47.866;-4.222;2022-12-18T03:46:29;101620.00;;;20.60
44429;BMP180;30134;47.866;-4.222;2022-12-18T03:52:11;101622.00;;;20.60
44429;BMP180;30134;47.866;-4.222;2022-12-18T03:54:40;101622.00;;;20.60
44429;BMP180;30134;47.866;-4.222;2022-12-18T03:57:22;101614.00;;;20.60
44429;BMP180;30134;47.866;-4.222;2022-12-18T03:59:56;101603.00;;;20.60
44429;BMP180;30134;47.866;-4.222;2022-12-18T04:02:24;101602.00;;;20.60
44429;BMP180;30134;47.866;-4.222;2022-12-18T04:04:53;101600.00;;;20.60
44429;BMP180;30134;47.866;-4.222;2022-12-18T04:07:21;101595.00;;;20.60
44429;BMP180;30134;47.866;-4.222;2022-12-18T04:09:49;101593.00;;;20.60
44429;BMP180;30134;47.866;-4.222;2022-12-18T04:12:17;101586.00;;;20.60
44429;BMP180;30134;47.866;-4.222;2022-12-18T04:14:43;101577.00;;;20.60
44429;BMP180;30134;47.866;-4.222;2022-12-18T04:17:10;101570.00;;;20.60
44429;BMP180;30134;47.866;-4.222;2022-12-18T04:19:36;101571.00;;;20.60
44429;BMP180;30134;47.866;-4.222;2022-12-18T04:22:02;101581.00;;;20.60
44429;BMP180;30134;47.866;-4.222;2022-12-18T04:24:28;101568.00;;;20.60
44429;BMP180;30134;47.866;-4.222;2022-12-18T04:26:54;101558.00;;;20.60
44429;BMP180;30134;47.866;-4.222;2022-12-18T04:29:20;101556.00;;;20.60
44429;BMP180;30134;47.866;-4.222;2022-12-18T04:31:46;101554.00;;;20.60
44429;BMP180;30134;47.866;-4.222;2022-12-18T04:34:27;101545.00;;;20.60
44429;BMP180;30134;47.866;-4.222;2022-12-18T04:36:59;101551.00;;;20.60
44429;BMP180;30134;47.866;-4.222;2022-12-18T04:39:25;101549.00;;;20.60
44429;BMP180;30134;47.866;-4.222;2022-12-18T04:41:51;101546.00;;;20.60
44429;BMP180;30134;47.866;-4.222;2022-12-18T04:44:17;101540.00;;;20.60
44429;BMP180;30134;47.866;-4.222;2022-12-18T04:46:43;101527.00;;;20.60
44429;BMP180;30134;47.866;-4.222;2022-12-18T04:49:10;101531.00;;;20.60
44429;BMP180;30134;47.866;-4.222;2022-12-18T04:51:39;101535.00;;;20.60
44429;BMP180;30134;47.866;-4.222;2022-12-18T04:54:05;101522.00;;;20.60
44429;BMP180;30134;47.866;-4.222;2022-12-18T04:56:31;101523.00;;;20.60
44429;BMP180;30134;47.866;-4.222;2022-12-18T04:58:58;101519.00;;;20.60
44429;BMP180;30134;47.866;-4.222;2022-12-18T05:01:24;101506.00;;;20.60
44429;BMP180;30134;47.866;-4.222;2022-12-18T05:03:51;101502.00;;;20.60
44429;BMP180;30134;47.866;-4.222;2022-12-18T05:06:17;101497.00;;;20.60
44429;BMP180;30134;47.866;-4.222;2022-12-18T05:08:43;101485.00;;;20.60
44429;BMP180;30134;47.866;-4.222;2022-12-18T05:11:13;101478.00;;;20.60
44429;BMP180;30134;47.866;-4.222;2022-12-18T05:13:43;101482.00;;;20.60
44429;BMP180;30134;47.866;-4.222;2022-12-18T05:16:10;101485.00;;;20.60
44429;BMP180;30134;47.866;-4.222;2022-12-18T05:18:37;101482.00;;;20.60
44429;BMP180;30134;47.866;-4.222;2022-12-18T05:21:04;101478.00;;;20.60
44429;BMP180;30134;47.866;-4.222;2022-12-18T05:23:30;101484.00;;;20.60
44429;BMP180;30134;47.866;-4.222;2022-12-18T05:25:59;101491.00;;;20.60
44429;BMP180;30134;47.866;-4.222;2022-12-18T05:28:28;101479.00;;;20.60
44429;BMP180;30134;47.866;-4.222;2022-12-18T05:30:58;101476.00;;;20.60
44429;BMP180;30134;47.866;-4.222;2022-12-18T05:33:28;101460.00;;;20.60
44429;BMP180;30134;47.866;-4.222;2022-12-18T05:36:03;101463.00;;;20.60
44429;BMP180;30134;47.866;-4.222;2022-12-18T05:38:31;101452.00;;;20.60
44429;BMP180;30134;47.866;-4.222;2022-12-18T05:40:58;101451.00;;;20.60
44429;BMP180;30134;47.866;-4.222;2022-12-18T05:43:26;101444.00;;;20.60
44429;BMP180;30134;47.866;-4.222;2022-12-18T05:45:53;101454.00;;;20.60
44429;BMP180;30134;47.866;-4.222;2022-12-18T05:48:19;101453.00;;;20.60
44429;BMP180;30134;47.866;-4.222;2022-12-18T05:50:47;101438.00;;;20.60
44429;BMP180;30134;47.866;-4.222;2022-12-18T05:53:17;101440.00;;;20.60
44429;BMP180;30134;47.866;-4.222;2022-12-18T05:55:44;101434.00;;;20.60
44429;BMP180;30134;47.866;-4.222;2022-12-18T05:58:12;101429.00;;;20.60
44429;BMP180;30134;47.866;-4.222;2022-12-18T06:00:42;101432.00;;;20.60
44429;BMP180;30134;47.866;-4.222;2022-12-18T06:03:09;101432.00;;;20.60
44429;BMP180;30134;47.866;-4.222;2022-12-18T06:05:44;101427.00;;;20.60
44429;BMP180;30134;47.866;-4.222;2022-12-18T06:08:12;101422.00;;;20.60
44429;BMP180;30134;47.866;-4.222;2022-12-18T06:10:39;101420.00;;;20.60
44429;BMP180;30134;47.866;-4.222;2022-12-18T06:13:06;101413.00;;;20.60
44429;BMP180;30134;47.866;-4.222;2022-12-18T06:15:32;101417.00;;;20.60
44429;BMP180;30134;47.866;-4.222;2022-12-18T06:18:00;101410.00;;;20.60
44429;BMP180;30134;47.866;-4.222;2022-12-18T06:20:26;101418.00;;;20.60
44429;BMP180;30134;47.866;-4.222;2022-12-18T06:22:52;101420.00;;;20.60
44429;BMP180;30134;47.866;-4.222;2022-12-18T06:25:18;101414.00;;;20.60
44429;BMP180;30134;47.866;-4.222;2022-12-18T06:27:47;101414.00;;;20.60
44429;BMP180;30134;47.866;-4.222;2022-12-18T06:30:13;101423.00;;;20.60
44429;BMP180;30134;47.866;-4.222;2022-12-18T06:32:39;101424.00;;;20.70
44429;BMP180;30134;47.866;-4.222;2022-12-18T06:35:06;101422.00;;;20.70
44429;BMP180;30134;47.866;-4.222;2022-12-18T06:37:32;101422.00;;;20.60
44429;BMP180;30134;47.866;-4.222;2022-12-18T06:39:58;101419.00;;;20.70
44429;BMP180;30134;47.866;-4.222;2022-12-18T06:42:24;101424.00;;;20.70
44429;BMP180;30134;47.866;-4.222;2022-12-18T06:44:50;101426.00;;;20.70
44429;BMP180;30134;47.866;-4.222;2022-12-18T06:47:17;101421.00;;;20.70
44429;BMP180;30134;47.866;-4.222;2022-12-18T06:49:43;101418.00;;;20.70
44429;BMP180;30134;47.866;-4.222;2022-12-18T06:52:09;101403.00;;;20.70
44429;BMP180;30134;47.866;-4.222;2022-12-18T06:54:35;101407.00;;;20.70
44429;BMP180;30134;47.866;-4.222;2022-12-18T06:57:01;101412.00;;;20.70
44429;BMP180;30134;47.866;-4.222;2022-12-18T06:59:27;101406.00;;;20.70
44429;BMP180;30134;47.866;-4.222;2022-12-18T07:01:53;101407.00;;;20.70
44429;BMP180;30134;47.866;-4.222;2022-12-18T07:04:19;101398.00;;;20.70
44429;BMP180;30134;47.866;-4.222;2022-12-18T07:06:45;101401.00;;;20.70
44429;BMP180;30134;47.866;-4.222;2022-12-18T07:09:11;101406.00;;;20.70
44429;BMP180;30134;47.866;-4.222;2022-12-18T07:11:37;101408.00;;;20.70
44429;BMP180;30134;47.866;-4.222;2022-12-18T07:14:03;101419.00;;;20.70
44429;BMP180;30134;47.866;-4.222;2022-12-18T07:16:29;101412.00;;;20.70
44429;BMP180;30134;47.866;-4.222;2022-12-18T07:18:56;101413.00;;;20.70
44429;BMP180;30134;47.866;-4.222;2022-12-18T07:21:23;101418.00;;;20.70
44429;BMP180;30134;47.866;-4.222;2022-12-18T07:23:49;101409.00;;;20.70
44429;BMP180;30134;47.866;-4.222;2022-12-18T07:26:22;101410.00;;;20.70
44429;BMP180;30134;47.866;-4.222;2022-12-18T07:28:49;101414.00;;;20.70
44429;BMP180;30134;47.866;-4.222;2022-12-18T07:31:19;101401.00;;;20.70
44429;BMP180;30134;47.866;-4.222;2022-12-18T07:33:46;101399.00;;;20.70
44429;BMP180;30134;47.866;-4.222;2022-12-18T07:36:13;101396.00;;;20.70
44429;BMP180;30134;47.866;-4.222;2022-12-18T07:38:40;101393.00;;;20.70
44429;BMP180;30134;47.866;-4.222;2022-12-18T07:41:12;101386.00;;;20.70
44429;BMP180;30134;47.866;-4.222;2022-12-18T07:43:40;101389.00;;;20.70
44429;BMP180;30134;47.866;-4.222;2022-12-18T07:46:07;101392.00;;;20.70
44429;BMP180;30134;47.866;-4.222;2022-12-18T07:48:34;101388.00;;;20.70
44429;BMP180;30134;47.866;-4.222;2022-12-18T07:51:05;101386.00;;;20.70
44429;BMP180;30134;47.866;-4.222;2022-12-18T07:53:33;101382.00;;;20.70
44429;BMP180;30134;47.866;-4.222;2022-12-18T07:56:06;101385.00;;;20.70
44429;BMP180;30134;47.866;-4.222;2022-12-18T07:58:35;101370.00;;;20.70
44429;BMP180;30134;47.866;-4.222;2022-12-18T08:01:06;101379.00;;;20.70
44429;BMP180;30134;47.866;-4.222;2022-12-18T08:03:34;101377.00;;;20.70
44429;BMP180;30134;47.866;-4.222;2022-12-18T08:06:06;101383.00;;;20.70
44429;BMP180;30134;47.866;-4.222;2022-12-18T08:08:33;101378.00;;;20.70
44429;BMP180;30134;47.866;-4.222;2022-12-18T08:11:00;101385.00;;;20.70
44429;BMP180;30134;47.866;-4.222;2022-12-18T08:13:26;101395.00;;;20.80
44429;BMP180;30134;47.866;-4.222;2022-12-18T08:16:02;101394.00;;;20.70
44429;BMP180;30134;47.866;-4.222;2022-12-18T08:18:31;101387.00;;;20.80
44429;BMP180;30134;47.866;-4.222;2022-12-18T08:20:57;101402.00;;;20.80
44429;BMP180;30134;47.866;-4.222;2022-12-18T08:23:23;101373.00;;;20.80
44429;BMP180;30134;47.866;-4.222;2022-12-18T08:25:49;101372.00;;;20.80
44429;BMP180;30134;47.866;-4.222;2022-12-18T08:28:17;101382.00;;;20.80
44429;BMP180;30134;47.866;-4.222;2022-12-18T08:30:43;101375.00;;;20.80
44429;BMP180;30134;47.866;-4.222;2022-12-18T08:33:09;101378.00;;;20.80
44429;BMP180;30134;47.866;-4.222;2022-12-18T08:35:36;101371.00;;;20.80
44429;BMP180;30134;47.866;-4.222;2022-12-18T08:38:03;101366.00;;;20.80
44429;BMP180;30134;47.866;-4.222;2022-12-18T08:40:29;101371.00;;;20.80
44429;BMP180;30134;47.866;-4.222;2022-12-18T08:42:55;101359.00;;;20.80
44429;BMP180;30134;47.866;-4.222;2022-12-18T08:45:40;101364.00;;;20.80
44429;BMP180;30134;47.866;-4.222;2022-12-18T08:48:09;101359.00;;;20.80
44429;BMP180;30134;47.866;-4.222;2022-12-18T08:50:35;101364.00;;;20.80
44429;BMP180;30134;47.866;-4.222;2022-12-18T08:53:01;101367.00;;;20.80
44429;BMP180;30134;47.866;-4.222;2022-12-18T08:55:27;101364.00;;;20.80
44429;BMP180;30134;47.866;-4.222;2022-12-18T08:57:53;101368.00;;;20.80
44429;BMP180;30134;47.866;-4.222;2022-12-18T09:00:19;101363.00;;;20.80
44429;BMP180;30134;47.866;-4.222;2022-12-18T09:02:45;101365.00;;;20.80
44429;BMP180;30134;47.866;-4.222;2022-12-18T09:05:11;101362.00;;;20.80
44429;BMP180;30134;47.866;-4.222;2022-12-18T09:07:38;101344.00;;;20.80
44429;BMP180;30134;47.866;-4.222;2022-12-18T09:10:05;101345.00;;;20.80
44429;BMP180;30134;47.866;-4.222;2022-12-18T09:12:31;101338.00;;;20.80
44429;BMP180;30134;47.866;-4.222;2022-12-18T09:14:57;101341.00;;;20.80
44429;BMP180;30134;47.866;-4.222;2022-12-18T09:17:23;101330.00;;;20.80
44429;BMP180;30134;47.866;-4.222;2022-12-18T09:19:49;101337.00;;;20.80
44429;BMP180;30134;47.866;-4.222;2022-12-18T09:22:15;101334.00;;;20.80
44429;BMP180;30134;47.866;-4.222;2022-12-18T09:24:41;101325.00;;;20.80
44429;BMP180;30134;47.866;-4.222;2022-12-18T09:27:07;101326.00;;;20.80
44429;BMP180;30134;47.866;-4.222;2022-12-18T09:29:33;101320.00;;;20.80
44429;BMP180;30134;47.866;-4.222;2022-12-18T09:31:59;101313.00;;;20.80
44429;BMP180;30134;47.866;-4.222;2022-12-18T09:34:25;101300.00;;;20.80
44429;BMP180;30134;47.866;-4.222;2022-12-18T09:36:51;101295.00;;;20.80
44429;BMP180;30134;47.866;-4.222;2022-12-18T09:39:17;101286.00;;;20.80
44429;BMP180;30134;47.866;-4.222;2022-12-18T09:41:57;101279.00;;;20.80
44429;BMP180;30134;47.866;-4.222;2022-12-18T09:44:35;101274.00;;;20.80
44429;BMP180;30134;47.866;-4.222;2022-12-18T09:49:46;101278.00;;;20.80
44429;BMP180;30134;47.866;-4.222;2022-12-18T09:52:39;101274.00;;;20.80
44429;BMP180;30134;47.866;-4.222;2022-12-18T09:55:36;101277.00;;;20.80
44429;BMP180;30134;47.866;-4.222;2022-12-18T09:58:39;101285.00;;;20.80
44429;BMP180;30134;47.866;-4.222;2022-12-18T10:01:18;101302.00;;;20.80
44429;BMP180;30134;47.866;-4.222;2022-12-18T10:03:45;101313.00;;;20.80
44429;BMP180;30134;47.866;-4.222;2022-12-18T10:07:11;101345.00;;;20.80
44429;BMP180;30134;47.866;-4.222;2022-12-18T10:09:48;101357.00;;;20.70
44429;BMP180;30134;47.866;-4.222;2022-12-18T10:14:54;101346.00;;;20.70
44429;BMP180;30134;47.866;-4.222;2022-12-18T10:17:52;101328.00;;;20.80
44429;BMP180;30134;47.866;-4.222;2022-12-18T10:23:28;101343.00;;;20.70
44429;BMP180;30134;47.866;-4.222;2022-12-18T10:26:08;101333.00;;;20.70
44429;BMP180;30134;47.866;-4.222;2022-12-18T10:28:37;101340.00;;;20.70
44429;BMP180;30134;47.866;-4.222;2022-12-18T10:31:20;101343.00;;;20.70
44429;BMP180;30134;47.866;-4.222;2022-12-18T10:33:47;101334.00;;;20.70
44429;BMP180;30134;47.866;-4.222;2022-12-18T10:36:14;101342.00;;;20.70
44429;BMP180;30134;47.866;-4.222;2022-12-18T10:38:40;101344.00;;;20.80
44429;BMP180;30134;47.866;-4.222;2022-12-18T10:46:45;101340.00;;;20.80
44429;BMP180;30134;47.866;-4.222;2022-12-18T10:49:28;101360.00;;;20.80
44429;BMP180;30134;47.866;-4.222;2022-12-18T10:52:22;101340.00;;;20.80
44429;BMP180;30134;47.866;-4.222;2022-12-18T10:55:02;101340.00;;;20.80
44429;BMP180;30134;47.866;-4.222;2022-12-18T10:57:35;101346.00;;;20.70
44429;BMP180;30134;47.866;-4.222;2022-12-18T11:02:47;101329.00;;;20.70
44429;BMP180;30134;47.866;-4.222;2022-12-18T11:05:29;101339.00;;;20.70
44429;BMP180;30134;47.866;-4.222;2022-12-18T11:07:56;101335.00;;;20.70
44429;BMP180;30134;47.866;-4.222;2022-12-18T11:13:12;101329.00;;;20.70
44429;BMP180;30134;47.866;-4.222;2022-12-18T11:15:42;101324.00;;;20.70
44429;BMP180;30134;47.866;-4.222;2022-12-18T11:18:38;101327.00;;;20.70
44429;BMP180;30134;47.866;-4.222;2022-12-18T11:21:09;101328.00;;;20.70
44429;BMP180;30134;47.866;-4.222;2022-12-18T11:23:47;101322.00;;;20.70
44429;BMP180;30134;47.866;-4.222;2022-12-18T11:26:14;101318.00;;;20.50
44429;BMP180;30134;47.866;-4.222;2022-12-18T11:28:52;101313.00;;;20.40
44429;BMP180;30134;47.866;-4.222;2022-12-18T11:31:26;101311.00;;;20.20
44429;BMP180;30134;47.866;-4.222;2022-12-18T11:34:09;101308.00;;;20.10
44429;BMP180;30134;47.866;-4.222;2022-12-18T11:36:46;101301.00;;;20.10
44429;BMP180;30134;47.866;-4.222;2022-12-18T11:39:49;101299.00;;;20.10
44429;BMP180;30134;47.866;-4.222;2022-12-18T11:42:42;101287.00;;;20.10
44429;BMP180;30134;47.866;-4.222;2022-12-18T11:45:28;101280.00;;;20.20
44429;BMP180;30134;47.866;-4.222;2022-12-18T11:50:55;101277.00;;;20.30
44429;BMP180;30134;47.866;-4.222;2022-12-18T11:53:26;101265.00;;;20.30
44429;BMP180;30134;47.866;-4.222;2022-12-18T12:11:51;101246.00;;;20.50
44429;BMP180;30134;47.866;-4.222;2022-12-18T12:17:59;101241.00;;;20.60
44429;BMP180;30134;47.866;-4.222;2022-12-18T12:21:00;101230.00;;;20.60
44429;BMP180;30134;47.866;-4.222;2022-12-18T12:35:12;101214.00;;;20.80
44429;BMP180;30134;47.866;-4.222;2022-12-18T12:40:03;101190.00;;;20.80
44429;BMP180;30134;47.866;-4.222;2022-12-18T12:42:41;101194.00;;;20.80
44429;BMP180;30134;47.866;-4.222;2022-12-18T12:51:38;101182.00;;;20.90
44429;BMP180;30134;47.866;-4.222;2022-12-18T12:54:11;101171.00;;;20.90
44429;BMP180;30134;47.866;-4.222;2022-12-18T12:57:22;101167.00;;;20.90
44429;BMP180;30134;47.866;-4.222;2022-12-18T13:03:06;101162.00;;;20.90
44429;BMP180;30134;47.866;-4.222;2022-12-18T13:08:28;101165.00;;;20.90
44429;BMP180;30134;47.866;-4.222;2022-12-18T13:10:59;101164.00;;;20.90
44429;BMP180;30134;47.866;-4.222;2022-12-18T13:14:04;101155.00;;;20.90
44429;BMP180;30134;47.866;-4.222;2022-12-18T13:16:30;101147.00;;;20.90
44429;BMP180;30134;47.866;-4.222;2022-12-18T13:18:57;101151.00;;;20.90
44429;BMP180;30134;47.866;-4.222;2022-12-18T13:21:33;101146.00;;;20.90
44429;BMP180;30134;47.866;-4.222;2022-12-18T13:24:30;101138.00;;;20.80
44429;BMP180;30134;47.866;-4.222;2022-12-18T13:26:56;101139.00;;;20.90
44429;BMP180;30134;47.866;-4.222;2022-12-18T13:29:45;101147.00;;;20.80
44429;BMP180;30134;47.866;-4.222;2022-12-18T13:32:25;101148.00;;;20.80
44429;BMP180;30134;47.866;-4.222;2022-12-18T13:37:53;101118.00;;;20.80
44429;BMP180;30134;47.866;-4.222;2022-12-18T13:46:24;101117.00;;;20.80
44429;BMP180;30134;47.866;-4.222;2022-12-18T13:51:32;101108.00;;;20.80
44429;BMP180;30134;47.866;-4.222;2022-12-18T13:54:40;101090.00;;;20.80
44429;BMP180;30134;47.866;-4.222;2022-12-18T13:57:27;101106.00;;;20.70
44429;BMP180;30134;47.866;-4.222;2022-12-18T13:59:54;101099.00;;;20.80
44429;BMP180;30134;47.866;-4.222;2022-12-18T14:02:25;101085.00;;;20.70
44429;BMP180;30134;47.866;-4.222;2022-12-18T14:04:51;101101.00;;;20.70
44429;BMP180;30134;47.866;-4.222;2022-12-18T14:07:28;101099.00;;;20.70
44429;BMP180;30134;47.866;-4.222;2022-12-18T14:09:59;101101.00;;;20.70
44429;BMP180;30134;47.866;-4.222;2022-12-18T14:12:31;101103.00;;;20.70
44429;BMP180;30134;47.866;-4.222;2022-12-18T14:18:23;101105.00;;;20.70
44429;BMP180;30134;47.866;-4.222;2022-12-18T14:20:52;101104.00;;;20.70
44429;BMP180;30134;47.866;-4.222;2022-12-18T14:24:23;101103.00;;;20.80
44429;BMP180;30134;47.866;-4.222;2022-12-18T14:26:50;101086.00;;;20.80
44429;BMP180;30134;47.866;-4.222;2022-12-18T14:29:29;101076.00;;;20.80
44429;BMP180;30134;47.866;-4.222;2022-12-18T14:32:17;101079.00;;;20.80
44429;BMP180;30134;47.866;-4.222;2022-12-18T14:34:54;101076.00;;;20.80
44429;BMP180;30134;47.866;-4.222;2022-12-18T14:37:24;101083.00;;;20.80
44429;BMP180;30134;47.866;-4.222;2022-12-18T14:39:56;101079.00;;;20.80
44429;BMP180;30134;47.866;-4.222;2022-12-18T14:42:25;101074.00;;;20.90
44429;BMP180;30134;47.866;-4.222;2022-12-18T14:45:35;101076.00;;;20.90
44429;BMP180;30134;47.866;-4.222;2022-12-18T14:48:19;101075.00;;;20.90
44429;BMP180;30134;47.866;-4.222;2022-12-18T14:51:02;101088.00;;;20.90
44429;BMP180;30134;47.866;-4.222;2022-12-18T14:56:00;101077.00;;;20.90
44429;BMP180;30134;47.866;-4.222;2022-12-18T14:58:26;101093.00;;;20.90
44429;BMP180;30134;47.866;-4.222;2022-12-18T15:00:52;101087.00;;;21.00
44429;BMP180;30134;47.866;-4.222;2022-12-18T15:03:23;101105.00;;;20.90
44429;BMP180;30134;47.866;-4.222;2022-12-18T15:05:49;101093.00;;;20.90
44429;BMP180;30134;47.866;-4.222;2022-12-18T15:08:35;101095.00;;;21.00
44429;BMP180;30134;47.866;-4.222;2022-12-18T15:11:03;101096.00;;;21.00
44429;BMP180;30134;47.866;-4.222;2022-12-18T15:13:29;101099.00;;;21.00
44429;BMP180;30134;47.866;-4.222;2022-12-18T15:16:01;101103.00;;;21.00
44429;BMP180;30134;47.866;-4.222;2022-12-18T15:18:33;101093.00;;;21.00
44429;BMP180;30134;47.866;-4.222;2022-12-18T15:21:08;101100.00;;;21.00
44429;BMP180;30134;47.866;-4.222;2022-12-18T15:26:12;101105.00;;;21.00
44429;BMP180;30134;47.866;-4.222;2022-12-18T15:28:55;101093.00;;;21.00
44429;BMP180;30134;47.866;-4.222;2022-12-18T15:31:32;101087.00;;;21.00
44429;BMP180;30134;47.866;-4.222;2022-12-18T15:34:33;101099.00;;;21.00
44429;BMP180;30134;47.866;-4.222;2022-12-18T15:37:00;101081.00;;;21.00
44429;BMP180;30134;47.866;-4.222;2022-12-18T15:39:26;101083.00;;;21.00
44429;BMP180;30134;47.866;-4.222;2022-12-18T15:41:52;101075.00;;;21.00
44429;BMP180;30134;47.866;-4.222;2022-12-18T15:44:38;101078.00;;;21.10
44429;BMP180;30134;47.866;-4.222;2022-12-18T15:47:11;101074.00;;;21.10
44429;BMP180;30134;47.866;-4.222;2022-12-18T15:49:38;101075.00;;;21.10
44429;BMP180;30134;47.866;-4.222;2022-12-18T15:52:05;101063.00;;;21.10
44429;BMP180;30134;47.866;-4.222;2022-12-18T15:54:31;101062.00;;;21.10
44429;BMP180;30134;47.866;-4.222;2022-12-18T15:57:16;101059.00;;;21.10
44429;BMP180;30134;47.866;-4.222;2022-12-18T15:59:55;101064.00;;;21.10
44429;BMP180;30134;47.866;-4.222;2022-12-18T16:02:26;101058.00;;;21.10